Petoskey, Michigan
Current Conditions -  °F | °C
As of 5:34 PM on Sunday 21 Dec 2014 (Local Time) from KMGN Reporting Station
Overcast Overcast  
Wind Chill: 25°   Ceiling: 4100
Heat Index: 32°   Visibility: 10mi
Dew Point: 28°   Wind: 8mph
Humidity: 85%   Direction: 70°ENE
Pressure: 30.13"   Gusts: NA
Location:  45.38°N, 84.96°W
Report Text: KMGN 212234Z AUTO 07007KT 10SM SCT014 OVC041 00/M02 A3013 RMK AO2 T00021020
Loading
Personal Weather Stations






























Interactive Weather Map New forecast layout! Learn more

10-Day Weather Forecast

Advertisements
Track Severe Weather on mobile